createdAt,value
2023-01-19T00:00:46.680Z,15.04
2023-01-19T00:03:17.992Z,15.29
2023-01-19T00:05:45.497Z,15.65
2023-01-19T00:08:15.986Z,15.39
2023-01-19T00:10:44.555Z,15.71
2023-01-19T00:13:11.481Z,15.05
2023-01-19T00:15:38.184Z,15.04
2023-01-19T00:18:05.506Z,14.91
2023-01-19T00:20:32.954Z,15.15
2023-01-19T00:22:59.901Z,15.48
2023-01-19T00:25:26.760Z,15.02
2023-01-19T00:27:53.571Z,14.93
2023-01-19T00:30:20.284Z,14.66
2023-01-19T00:32:47.000Z,14.60
2023-01-19T00:35:13.735Z,14.14
2023-01-19T00:37:40.380Z,14.92
2023-01-19T00:40:07.807Z,14.70
2023-01-19T00:42:40.277Z,14.54
2023-01-19T00:45:23.409Z,14.28
2023-01-19T00:47:57.009Z,14.67
2023-01-19T00:50:25.497Z,14.98
2023-01-19T00:52:54.205Z,14.40
2023-01-19T00:55:21.714Z,14.64
2023-01-19T00:57:49.067Z,14.58
2023-01-19T01:00:19.772Z,14.42
2023-01-19T01:02:47.250Z,14.53
2023-01-19T01:05:13.996Z,14.19
2023-01-19T01:07:41.659Z,14.65
2023-01-19T01:10:09.399Z,15.03
2023-01-19T01:12:37.147Z,14.99
2023-01-19T01:15:05.482Z,14.88
2023-01-19T01:17:32.128Z,15.50
2023-01-19T01:19:59.023Z,14.67
2023-01-19T01:22:25.840Z,14.92
2023-01-19T01:24:52.528Z,14.95
2023-01-19T01:27:19.194Z,15.50
2023-01-19T01:29:48.653Z,15.73
2023-01-19T01:32:16.777Z,15.14
2023-01-19T01:34:43.918Z,15.14
2023-01-19T01:37:10.597Z,14.87
2023-01-19T01:39:37.451Z,14.13
2023-01-19T01:42:18.283Z,14.73
2023-01-19T01:44:50.049Z,15.06
2023-01-19T01:47:28.036Z,14.65
2023-01-19T01:50:11.103Z,14.64
2023-01-19T01:53:06.941Z,14.46
2023-01-19T01:55:34.852Z,14.86
2023-01-19T01:58:04.342Z,14.90
2023-01-19T02:00:54.417Z,15.10
2023-01-19T02:03:23.661Z,15.00
2023-01-19T02:05:52.139Z,14.82
2023-01-19T02:08:44.165Z,15.57
2023-01-19T02:11:30.390Z,15.83
2023-01-19T02:13:57.596Z,15.72
2023-01-19T02:16:24.444Z,15.98
2023-01-19T02:18:51.222Z,15.67
2023-01-19T02:21:45.627Z,14.31
2023-01-19T02:24:13.029Z,14.63
2023-01-19T02:26:48.310Z,15.42
2023-01-19T02:29:17.763Z,15.65
2023-01-19T02:31:47.937Z,15.67
2023-01-19T02:34:19.969Z,16.01
2023-01-19T02:36:52.164Z,15.75
2023-01-19T02:39:22.749Z,15.74
2023-01-19T02:41:54.657Z,15.89
2023-01-19T02:44:23.537Z,15.54
2023-01-19T02:46:53.121Z,15.73
2023-01-19T02:49:19.759Z,15.24
2023-01-19T02:51:46.796Z,14.95
2023-01-19T02:54:17.487Z,15.17
2023-01-19T02:57:11.309Z,14.69
2023-01-19T02:59:49.658Z,14.70
2023-01-19T03:02:38.081Z,15.14
2023-01-19T03:05:22.148Z,14.98
2023-01-19T03:08:03.657Z,15.54
2023-01-19T03:10:49.915Z,14.41
2023-01-19T03:13:26.485Z,14.85
2023-01-19T03:16:05.553Z,14.80
2023-01-19T03:18:36.110Z,14.90
2023-01-19T03:21:07.287Z,15.25
2023-01-19T03:23:36.571Z,15.44
2023-01-19T03:26:07.130Z,15.57
2023-01-19T03:28:35.751Z,14.51
2023-01-19T03:31:25.291Z,15.12
2023-01-19T03:33:56.911Z,15.17
2023-01-19T03:36:49.241Z,15.02
2023-01-19T03:39:21.729Z,14.44
2023-01-19T03:41:52.445Z,15.25
2023-01-19T03:44:19.110Z,15.15
2023-01-19T03:46:48.060Z,14.72
2023-01-19T03:49:14.745Z,15.27
2023-01-19T03:51:41.999Z,15.72
2023-01-19T03:54:11.101Z,15.85
2023-01-19T03:56:37.779Z,15.73
2023-01-19T03:59:07.415Z,14.96
2023-01-19T04:01:34.120Z,14.57
2023-01-19T04:04:01.081Z,14.71
2023-01-19T04:06:28.239Z,15.12
2023-01-19T04:08:55.094Z,14.59
2023-01-19T04:11:21.881Z,15.46
2023-01-19T04:13:48.610Z,15.91
2023-01-19T04:16:20.050Z,15.52
2023-01-19T04:18:47.207Z,14.86
2023-01-19T04:21:13.856Z,15.59
2023-01-19T04:23:40.612Z,15.42
2023-01-19T04:26:08.596Z,15.00
2023-01-19T04:28:37.184Z,14.70
2023-01-19T04:31:05.228Z,14.76
2023-01-19T04:33:32.301Z,14.97
2023-01-19T04:35:59.288Z,14.87
2023-01-19T04:38:26.498Z,14.48
2023-01-19T04:40:54.190Z,14.32
2023-01-19T04:43:21.389Z,14.62
2023-01-19T04:45:49.166Z,14.65
2023-01-19T04:48:18.617Z,14.98
2023-01-19T04:50:45.632Z,14.60
2023-01-19T04:53:13.802Z,14.81
2023-01-19T04:55:40.912Z,14.58
2023-01-19T04:58:07.754Z,14.79
2023-01-19T05:00:34.471Z,14.85
2023-01-19T05:03:02.692Z,15.76
2023-01-19T05:05:29.915Z,14.84
2023-01-19T05:07:56.682Z,14.88
2023-01-19T05:10:23.946Z,14.53
2023-01-19T05:12:51.310Z,14.27
2023-01-19T05:15:18.329Z,14.86
2023-01-19T05:17:45.160Z,14.91
2023-01-19T05:20:15.738Z,15.10
2023-01-19T05:22:43.042Z,15.09
2023-01-19T05:25:09.933Z,14.83
2023-01-19T05:27:37.447Z,14.50
2023-01-19T05:30:05.523Z,14.57
2023-01-19T05:32:32.173Z,14.82
2023-01-19T05:34:58.826Z,14.62
2023-01-19T05:37:25.721Z,14.99
2023-01-19T05:39:52.813Z,14.55
2023-01-19T05:42:20.896Z,14.70
2023-01-19T05:44:47.575Z,14.61
2023-01-19T05:47:14.205Z,14.45
2023-01-19T05:49:40.864Z,14.52
2023-01-19T05:52:07.566Z,15.02
2023-01-19T05:54:34.314Z,14.87
2023-01-19T05:57:02.216Z,14.77
2023-01-19T05:59:28.801Z,14.40
2023-01-19T06:01:55.740Z,14.69
2023-01-19T06:04:22.468Z,14.77
2023-01-19T06:06:50.325Z,14.54
2023-01-19T06:09:17.552Z,15.03
2023-01-19T06:11:45.259Z,15.19
2023-01-19T06:14:12.493Z,14.79
2023-01-19T06:16:39.136Z,14.74
2023-01-19T06:19:05.965Z,14.62
2023-01-19T06:21:33.313Z,15.06
2023-01-19T06:24:00.111Z,14.78
2023-01-19T06:26:26.712Z,15.04
2023-01-19T06:28:53.312Z,14.97
2023-01-19T06:31:20.030Z,14.92
2023-01-19T06:33:47.255Z,15.15
2023-01-19T06:36:13.831Z,14.99
2023-01-19T06:38:40.408Z,15.02
2023-01-19T06:41:07.142Z,14.78
2023-01-19T06:43:33.837Z,14.92
2023-01-19T06:46:00.829Z,15.34
2023-01-19T06:48:27.995Z,15.13
2023-01-19T06:50:54.862Z,15.76
2023-01-19T06:53:22.430Z,15.99
2023-01-19T06:55:49.109Z,16.34
2023-01-19T06:58:15.917Z,16.18
2023-01-19T07:00:43.227Z,15.79
2023-01-19T07:03:19.788Z,16.22
2023-01-19T07:05:46.758Z,16.36
2023-01-19T07:08:15.497Z,16.04
2023-01-19T07:11:23.584Z,15.31
2023-01-19T07:13:28.712Z,15.45
2023-01-19T07:15:55.590Z,15.57
2023-01-19T07:18:22.234Z,15.87
2023-01-19T07:20:49.362Z,16.22
2023-01-19T07:23:16.504Z,15.51
2023-01-19T07:25:46.569Z,15.38
2023-01-19T07:28:15.753Z,15.72
2023-01-19T07:30:46.621Z,16.11
2023-01-19T07:33:13.325Z,15.85
2023-01-19T07:35:39.971Z,16.46
2023-01-19T07:38:06.539Z,16.60
2023-01-19T07:40:33.810Z,16.26
2023-01-19T07:43:00.663Z,15.93
2023-01-19T07:45:28.048Z,16.11
2023-01-19T07:47:54.900Z,16.37
2023-01-19T07:50:24.596Z,15.88
2023-01-19T07:52:53.581Z,16.14
2023-01-19T07:55:21.206Z,16.44
2023-01-19T07:57:52.006Z,16.59
2023-01-19T08:00:21.923Z,16.53
2023-01-19T08:02:52.173Z,16.85
2023-01-19T08:05:19.974Z,16.61
2023-01-19T08:07:47.391Z,16.85
2023-01-19T08:10:15.487Z,16.66
2023-01-19T08:12:42.691Z,16.38
2023-01-19T08:15:12.257Z,16.05
2023-01-19T08:17:38.802Z,16.12
2023-01-19T08:20:06.698Z,16.43
2023-01-19T08:22:33.325Z,16.05
2023-01-19T08:24:59.949Z,16.29
2023-01-19T08:27:26.681Z,16.94
2023-01-19T08:29:54.451Z,16.98
2023-01-19T08:32:21.230Z,17.52
2023-01-19T08:34:47.896Z,17.17
2023-01-19T08:37:14.499Z,17.46
2023-01-19T08:39:41.082Z,16.87
2023-01-19T08:42:07.665Z,16.58
2023-01-19T08:44:34.212Z,16.73
2023-01-19T08:47:00.903Z,17.14
2023-01-19T08:49:27.479Z,17.43
2023-01-19T08:51:54.063Z,16.99
2023-01-19T08:54:21.875Z,16.91
2023-01-19T08:56:48.613Z,17.55
2023-01-19T08:59:15.254Z,17.70
2023-01-19T09:01:42.103Z,17.86
2023-01-19T09:04:10.651Z,17.73
2023-01-19T09:06:37.328Z,17.72
2023-01-19T09:09:04.320Z,17.33
2023-01-19T09:11:31.004Z,17.11
2023-01-19T09:13:57.621Z,16.47
2023-01-19T09:16:27.083Z,17.08
2023-01-19T09:18:54.226Z,17.54
2023-01-19T09:21:20.916Z,17.84
2023-01-19T09:23:49.176Z,17.90
2023-01-19T09:26:15.980Z,17.66
2023-01-19T09:28:42.539Z,17.31
2023-01-19T09:31:09.790Z,17.01
2023-01-19T09:33:36.522Z,17.12
2023-01-19T09:36:05.927Z,17.14
2023-01-19T09:38:33.159Z,17.71
2023-01-19T09:41:00.850Z,17.63
2023-01-19T09:43:47.520Z,18.13
2023-01-19T09:46:33.547Z,17.52
2023-01-19T09:49:06.734Z,18.30
2023-01-19T09:51:38.433Z,18.19
2023-01-19T09:54:17.399Z,18.70
2023-01-19T09:56:46.081Z,18.25
2023-01-19T09:59:25.504Z,18.19
2023-01-19T11:32:49.729Z,18.01
2023-01-19T12:02:23.065Z,17.70
2023-01-19T12:04:51.539Z,16.89
2023-01-19T12:07:25.999Z,17.56
2023-01-19T12:09:58.814Z,17.63
2023-01-19T12:12:33.072Z,18.21
2023-01-19T12:15:19.343Z,18.51
2023-01-19T12:17:49.782Z,17.61
2023-01-19T12:20:25.331Z,18.58
2023-01-19T12:23:00.413Z,18.52
2023-01-19T12:26:03.457Z,18.63
2023-01-19T12:28:37.125Z,18.26
2023-01-19T12:31:04.089Z,17.66
2023-01-19T12:33:38.786Z,18.13
2023-01-19T12:36:17.366Z,18.63
2023-01-19T12:38:54.053Z,18.73
2023-01-19T12:41:26.380Z,17.70
2023-01-19T12:44:11.039Z,17.92
2023-01-19T12:46:41.282Z,18.30
2023-01-19T12:49:27.841Z,18.81
2023-01-19T12:52:13.109Z,18.93
2023-01-19T12:54:55.214Z,18.16
2023-01-19T12:57:33.277Z,18.26
2023-01-19T13:00:23.045Z,17.96
2023-01-19T13:02:54.063Z,18.16
2023-01-19T13:05:33.549Z,17.79
2023-01-19T13:08:03.681Z,17.86
2023-01-19T13:11:16.405Z,17.45
2023-01-19T13:13:48.514Z,18.21
2023-01-19T13:16:25.119Z,18.08
2023-01-19T13:19:06.743Z,17.98
2023-01-19T13:21:35.786Z,18.29
2023-01-19T13:24:05.859Z,17.44
2023-01-19T13:26:33.422Z,16.78
2023-01-19T13:29:15.837Z,17.40
2023-01-19T13:31:49.109Z,17.35
2023-01-19T13:34:21.143Z,16.95
2023-01-19T13:36:52.915Z,16.83
2023-01-19T13:39:37.887Z,17.09
2023-01-19T13:42:13.286Z,17.84
2023-01-19T13:45:02.148Z,17.06
2023-01-19T13:47:44.707Z,17.36
2023-01-19T13:50:35.227Z,17.18
2023-01-19T13:53:02.833Z,17.75
2023-01-19T13:55:30.936Z,18.06
2023-01-19T13:57:58.120Z,17.24
2023-01-19T14:00:27.529Z,17.35
2023-01-19T14:02:55.988Z,17.85
2023-01-19T14:05:31.717Z,16.96
2023-01-19T14:08:04.138Z,17.60
2023-01-19T14:10:31.723Z,17.72
2023-01-19T14:13:00.198Z,16.78
2023-01-19T14:15:28.453Z,16.94
2023-01-19T14:18:10.124Z,17.50
2023-01-19T14:20:37.251Z,17.12
2023-01-19T14:23:05.016Z,16.49
2023-01-19T14:25:36.545Z,17.14
2023-01-19T14:28:45.540Z,17.41
2023-01-19T14:31:28.103Z,17.12
2023-01-19T14:33:55.924Z,17.38
2023-01-19T14:36:33.731Z,17.36
2023-01-19T14:39:03.884Z,17.41
2023-01-19T14:41:39.195Z,17.03
2023-01-19T14:44:18.481Z,17.64
2023-01-19T14:46:47.999Z,17.88
2023-01-19T14:49:29.357Z,17.66
2023-01-19T14:51:57.086Z,17.65
2023-01-19T14:54:40.993Z,17.95
2023-01-19T14:57:13.177Z,17.88
2023-01-19T14:59:40.874Z,17.83
2023-01-19T15:02:07.790Z,17.65
2023-01-19T15:04:34.778Z,17.46
2023-01-19T15:07:01.362Z,17.68
2023-01-19T15:09:27.997Z,17.39
2023-01-19T15:11:54.667Z,17.59
2023-01-19T15:14:21.950Z,17.75
2023-01-19T15:16:49.164Z,17.76
2023-01-19T15:19:17.877Z,17.58
2023-01-19T15:21:46.861Z,17.49
2023-01-19T15:24:16.349Z,17.17
2023-01-19T15:26:44.433Z,17.42
2023-01-19T15:29:23.322Z,17.23
2023-01-19T15:31:50.465Z,17.21
2023-01-19T15:34:17.180Z,16.78
2023-01-19T15:36:43.946Z,17.22
2023-01-19T15:39:11.299Z,16.19
2023-01-19T15:41:41.011Z,16.37
2023-01-19T15:44:10.792Z,16.86
2023-01-19T15:46:38.108Z,17.09
2023-01-19T15:49:05.814Z,17.29
2023-01-19T15:51:33.021Z,17.26
2023-01-19T15:53:59.725Z,16.75
2023-01-19T15:56:29.197Z,16.77
2023-01-19T15:58:58.757Z,16.69
2023-01-19T16:01:33.910Z,16.93
2023-01-19T16:04:04.087Z,16.65
2023-01-19T16:06:31.423Z,16.80
2023-01-19T16:09:01.893Z,16.46
2023-01-19T16:11:30.999Z,15.98
2023-01-19T16:13:57.909Z,16.49
2023-01-19T16:16:26.280Z,16.72
2023-01-19T16:18:53.047Z,16.75
2023-01-19T16:21:19.785Z,16.36
2023-01-19T16:23:46.478Z,16.04
2023-01-19T16:26:32.309Z,13.85
2023-01-19T16:29:08.597Z,13.05
2023-01-19T16:31:36.498Z,13.24
2023-01-19T16:34:03.287Z,13.74
2023-01-19T16:36:32.167Z,13.74
2023-01-19T16:39:01.018Z,13.83
2023-01-19T16:41:28.192Z,13.43
2023-01-19T16:43:57.241Z,12.90
2023-01-19T16:46:26.422Z,13.17
2023-01-19T16:48:53.127Z,12.39
2023-01-19T16:51:20.357Z,12.18
2023-01-19T16:53:49.749Z,12.44
2023-01-19T16:56:17.360Z,12.53
2023-01-19T16:58:44.208Z,12.23
2023-01-19T17:01:14.852Z,12.67
2023-01-19T17:03:42.601Z,12.73
2023-01-19T17:06:11.132Z,12.90
2023-01-19T17:08:38.790Z,12.44
2023-01-19T17:11:13.921Z,12.44
2023-01-19T17:13:40.572Z,12.98
2023-01-19T17:16:08.075Z,13.20
2023-01-19T17:18:35.844Z,12.88
2023-01-19T17:21:08.322Z,12.52
2023-01-19T17:23:38.749Z,12.17
2023-01-19T17:26:05.580Z,12.40
2023-01-19T17:28:32.205Z,12.93
2023-01-19T17:31:05.920Z,12.16
2023-01-19T17:33:33.137Z,12.21
2023-01-19T17:36:22.387Z,12.65
2023-01-19T17:38:50.188Z,13.07
2023-01-19T17:41:19.471Z,13.40
2023-01-19T17:43:46.681Z,13.26
2023-01-19T17:46:13.691Z,13.14
2023-01-19T17:48:40.564Z,12.57
2023-01-19T17:51:09.947Z,12.84
2023-01-19T17:53:38.125Z,13.02
2023-01-19T17:56:05.761Z,13.05
2023-01-19T17:58:32.698Z,13.17
2023-01-19T18:01:08.959Z,13.30
2023-01-19T18:03:35.951Z,12.90
2023-01-19T18:06:02.691Z,13.16
2023-01-19T18:08:29.524Z,12.93
2023-01-19T18:10:57.605Z,12.85
2023-01-19T18:13:24.758Z,12.53
2023-01-19T18:15:51.846Z,12.67
2023-01-19T18:18:18.467Z,11.88
2023-01-19T18:20:45.145Z,12.14
2023-01-19T18:23:12.105Z,12.57
2023-01-19T18:25:39.815Z,12.84
2023-01-19T18:28:07.204Z,12.86
2023-01-19T18:30:37.283Z,12.30
2023-01-19T18:33:04.512Z,11.68
2023-01-19T18:35:31.096Z,11.64
2023-01-19T18:37:58.641Z,12.07
2023-01-19T18:40:26.070Z,12.13
2023-01-19T18:42:52.750Z,11.96
2023-01-19T18:45:19.350Z,11.62
2023-01-19T18:47:45.987Z,11.38
2023-01-19T18:50:14.431Z,11.47
2023-01-19T18:52:42.637Z,11.41
2023-01-19T18:55:10.717Z,11.62
2023-01-19T18:57:37.574Z,11.56
2023-01-19T19:00:05.545Z,11.36
2023-01-19T19:02:33.307Z,11.21
2023-01-19T19:05:03.556Z,10.98
2023-01-19T19:07:30.427Z,10.73
2023-01-19T19:09:58.217Z,11.04
2023-01-19T19:12:25.131Z,10.38
2023-01-19T19:14:52.794Z,10.80
2023-01-19T19:17:20.704Z,10.44
2023-01-19T19:19:47.310Z,10.06
2023-01-19T19:22:14.161Z,10.29
2023-01-19T19:24:40.803Z,10.86
2023-01-19T19:27:07.450Z,10.68
2023-01-19T19:29:36.380Z,10.17
2023-01-19T19:32:07.847Z,10.41
2023-01-19T19:34:35.873Z,10.33
2023-01-19T19:37:02.798Z,10.68
2023-01-19T19:39:29.602Z,10.50
2023-01-19T19:41:56.289Z,10.44
2023-01-19T19:44:23.241Z,10.81
2023-01-19T19:46:49.966Z,10.02
2023-01-19T19:49:21.391Z,10.62
2023-01-19T19:51:49.897Z,10.89
2023-01-19T19:54:17.022Z,10.66
2023-01-19T19:56:44.402Z,10.75
2023-01-19T19:59:12.675Z,10.57
2023-01-19T20:01:39.880Z,11.01
2023-01-19T20:04:09.832Z,10.66
2023-01-19T20:06:39.887Z,10.53
2023-01-19T20:09:14.309Z,11.01
2023-01-19T20:11:42.666Z,11.58
2023-01-19T20:14:13.478Z,11.07
2023-01-19T20:16:41.002Z,10.73
2023-01-19T20:19:09.965Z,11.18
2023-01-19T20:21:40.636Z,11.64
2023-01-19T20:24:12.829Z,10.79
2023-01-19T20:26:44.168Z,10.95
2023-01-19T20:29:13.181Z,11.29
2023-01-19T20:31:44.843Z,11.04
2023-01-19T20:34:14.777Z,11.19
2023-01-19T20:36:41.749Z,11.56
2023-01-19T20:39:10.924Z,11.23
2023-01-19T20:41:43.842Z,10.49
2023-01-19T20:44:22.833Z,10.38
2023-01-19T20:46:49.887Z,10.33
2023-01-19T20:49:16.609Z,10.94
2023-01-19T20:51:45.311Z,11.43
2023-01-19T20:54:14.104Z,11.71
2023-01-19T20:56:41.724Z,11.24
2023-01-19T20:59:10.197Z,11.58
2023-01-19T21:01:36.999Z,11.44
2023-01-19T21:04:04.231Z,11.65
2023-01-19T21:06:30.889Z,10.51
2023-01-19T21:08:58.009Z,10.60
2023-01-19T21:11:25.287Z,9.21
2023-01-19T21:13:55.705Z,10.25
2023-01-19T21:16:29.308Z,10.68
2023-01-19T21:18:56.337Z,11.25
2023-01-19T21:21:30.767Z,11.64
2023-01-19T21:23:59.837Z,11.32
2023-01-19T21:26:26.633Z,11.60
2023-01-19T21:28:53.454Z,11.44
2023-01-19T21:31:22.620Z,11.20
2023-01-19T21:33:57.134Z,11.65
2023-01-19T21:36:24.686Z,11.17
2023-01-19T21:38:52.411Z,11.60
2023-01-19T21:41:19.416Z,11.72
2023-01-19T21:43:46.303Z,11.43
2023-01-19T21:46:22.193Z,10.28
2023-01-19T21:48:48.900Z,10.94
2023-01-19T21:51:15.904Z,10.96
2023-01-19T21:53:42.889Z,11.59
2023-01-19T21:56:10.850Z,11.56
2023-01-19T21:58:37.874Z,11.48
2023-01-19T22:01:07.327Z,11.45
2023-01-19T22:03:34.067Z,10.92
2023-01-19T22:06:05.932Z,10.73
2023-01-19T22:08:32.718Z,11.11
2023-01-19T22:11:06.800Z,11.54
2023-01-19T22:13:34.817Z,11.63
2023-01-19T22:16:03.016Z,11.81
2023-01-19T22:18:30.004Z,11.70
2023-01-19T22:20:56.872Z,11.00
2023-01-19T22:23:23.492Z,11.38
2023-01-19T22:25:50.143Z,10.89
2023-01-19T22:28:16.775Z,11.24
2023-01-19T22:30:43.707Z,11.93
2023-01-19T22:33:10.376Z,11.75
2023-01-19T22:35:36.945Z,11.96
2023-01-19T22:38:03.649Z,11.96
2023-01-19T22:40:30.239Z,11.70
2023-01-19T22:42:56.877Z,11.73
2023-01-19T22:45:23.750Z,11.89
2023-01-19T22:47:50.405Z,11.96
2023-01-19T22:50:17.107Z,12.08
2023-01-19T22:52:43.791Z,12.09
2023-01-19T22:55:10.563Z,12.44
2023-01-19T22:57:37.460Z,12.28
2023-01-19T23:00:07.223Z,12.17
2023-01-19T23:02:34.149Z,11.89
2023-01-19T23:05:00.996Z,12.19
2023-01-19T23:07:27.645Z,11.96
2023-01-19T23:09:54.204Z,11.80
2023-01-19T23:12:20.798Z,11.71
2023-01-19T23:14:47.392Z,11.59
2023-01-19T23:17:14.008Z,11.86
2023-01-19T23:19:40.665Z,12.20
2023-01-19T23:22:07.208Z,12.05
2023-01-19T23:24:33.925Z,11.17
2023-01-19T23:27:02.269Z,10.65
2023-01-19T23:29:28.942Z,10.42
2023-01-19T23:31:56.299Z,10.13
2023-01-19T23:34:22.917Z,9.59
2023-01-19T23:36:49.510Z,9.70
2023-01-19T23:39:22.285Z,9.30
2023-01-19T23:41:49.733Z,9.73
2023-01-19T23:44:17.356Z,9.19
2023-01-19T23:46:44.725Z,8.90
2023-01-19T23:49:12.358Z,9.19
2023-01-19T23:51:39.871Z,9.28
2023-01-19T23:54:06.794Z,9.20
2023-01-19T23:56:35.728Z,9.22
2023-01-19T23:59:08.280Z,9.48
